createdAt,value
2023-01-01T00:00:42.132Z,20.20
2023-01-01T00:03:09.346Z,20.20
2023-01-01T00:05:39.182Z,20.20
2023-01-01T00:08:06.816Z,20.20
2023-01-01T00:10:33.977Z,20.20
2023-01-01T00:13:01.119Z,20.20
2023-01-01T00:15:28.788Z,20.20
2023-01-01T00:17:57.895Z,20.20
2023-01-01T00:20:28.668Z,20.20
2023-01-01T00:22:58.695Z,20.20
2023-01-01T00:25:25.782Z,20.20
2023-01-01T00:27:53.041Z,20.20
2023-01-01T00:30:20.184Z,20.10
2023-01-01T00:32:55.515Z,20.20
2023-01-01T00:35:24.967Z,20.10
2023-01-01T00:37:52.971Z,20.10
2023-01-01T00:40:20.145Z,20.20
2023-01-01T00:42:47.239Z,20.20
2023-01-01T00:45:20.572Z,20.10
2023-01-01T00:47:49.514Z,20.20
2023-01-01T00:50:16.577Z,20.10
2023-01-01T00:52:43.746Z,20.20
2023-01-01T00:55:11.492Z,20.10
2023-01-01T00:57:38.632Z,20.10
2023-01-01T01:00:06.489Z,20.10
2023-01-01T01:02:33.851Z,20.20
2023-01-01T01:05:01.637Z,20.10
2023-01-01T01:07:28.707Z,20.10
2023-01-01T01:09:55.835Z,20.10
2023-01-01T01:12:22.927Z,20.10
2023-01-01T01:14:50.037Z,20.10
2023-01-01T01:17:17.089Z,20.10
2023-01-01T01:19:44.448Z,20.10
2023-01-01T01:22:11.575Z,20.10
2023-01-01T01:24:38.635Z,20.10
2023-01-01T01:27:05.694Z,20.10
2023-01-01T01:29:32.779Z,20.10
2023-01-01T01:31:59.836Z,20.10
2023-01-01T01:34:28.291Z,20.10
2023-01-01T01:36:56.300Z,20.10
2023-01-01T01:39:23.544Z,20.10
2023-01-01T01:41:50.708Z,20.10
2023-01-01T01:44:50.328Z,20.10
2023-01-01T01:47:29.700Z,20.20
2023-01-01T01:50:09.352Z,20.20
2023-01-01T01:52:39.912Z,20.10
2023-01-01T01:55:08.124Z,20.10
2023-01-01T01:57:35.338Z,20.10
2023-01-01T02:00:08.652Z,20.10
2023-01-01T02:02:42.456Z,20.10
2023-01-01T02:05:09.527Z,20.10
2023-01-01T02:07:36.508Z,20.10
2023-01-01T02:10:04.170Z,20.10
2023-01-01T02:12:31.102Z,20.10
2023-01-01T02:14:58.643Z,20.10
2023-01-01T02:17:40.882Z,20.10
2023-01-01T02:20:16.739Z,20.10
2023-01-01T02:23:04.419Z,20.10
2023-01-01T02:25:51.515Z,20.10
2023-01-01T02:28:38.307Z,20.10
2023-01-01T02:31:05.678Z,20.10
2023-01-01T02:33:33.275Z,20.10
2023-01-01T02:36:02.512Z,20.10
2023-01-01T02:38:31.486Z,20.10
2023-01-01T02:41:04.072Z,20.10
2023-01-01T02:43:31.130Z,20.10
2023-01-01T02:45:58.345Z,20.10
2023-01-01T02:48:42.650Z,20.10
2023-01-01T02:51:29.474Z,20.10
2023-01-01T02:54:10.217Z,20.10
2023-01-01T02:56:57.010Z,20.10
2023-01-01T02:59:53.602Z,20.10
2023-01-01T03:02:43.918Z,20.10
2023-01-01T03:05:18.974Z,20.10
2023-01-01T03:08:05.771Z,20.10
2023-01-01T03:10:37.357Z,20.10
2023-01-01T03:13:10.518Z,20.10
2023-01-01T03:15:43.044Z,20.10
2023-01-01T03:18:19.550Z,20.10
2023-01-01T03:20:48.810Z,20.10
2023-01-01T03:23:19.073Z,20.10
2023-01-01T03:25:47.859Z,20.10
2023-01-01T03:28:16.837Z,20.10
2023-01-01T03:30:45.779Z,20.10
2023-01-01T03:33:22.572Z,20.10
2023-01-01T03:35:53.031Z,20.10
2023-01-01T03:38:22.643Z,20.10
2023-01-01T03:40:51.594Z,20.10
2023-01-01T03:43:21.370Z,20.10
2023-01-01T03:45:49.075Z,20.10
2023-01-01T03:48:16.363Z,20.10
2023-01-01T03:51:03.002Z,20.10
2023-01-01T03:53:39.209Z,20.10
2023-01-01T03:56:25.959Z,20.10
2023-01-01T03:58:54.748Z,20.10
2023-01-01T04:01:27.172Z,20.10
2023-01-01T04:03:54.333Z,20.10
2023-01-01T04:06:21.427Z,20.10
2023-01-01T04:08:49.451Z,20.10
2023-01-01T04:11:38.651Z,20.10
2023-01-01T04:14:05.722Z,20.10
2023-01-01T04:16:32.762Z,20.10
2023-01-01T04:18:59.719Z,20.10
2023-01-01T04:21:26.629Z,20.10
2023-01-01T04:23:53.526Z,20.10
2023-01-01T04:26:20.450Z,20.10
2023-01-01T04:28:47.385Z,20.10
2023-01-01T04:31:14.268Z,20.10
2023-01-01T04:33:41.194Z,20.00
2023-01-01T04:36:09.294Z,20.10
2023-01-01T04:38:36.849Z,20.10
2023-01-01T04:41:04.294Z,20.00
2023-01-01T04:43:31.569Z,20.00
2023-01-01T04:45:59.535Z,20.00
2023-01-01T04:48:26.511Z,20.00
2023-01-01T04:51:00.831Z,20.00
2023-01-01T04:53:29.597Z,20.00
2023-01-01T04:55:56.630Z,20.00
2023-01-01T04:58:24.213Z,20.00
2023-01-01T05:00:51.360Z,20.00
2023-01-01T05:03:18.462Z,20.00
2023-01-01T05:05:51.093Z,20.00
2023-01-01T05:08:18.278Z,20.00
2023-01-01T05:10:45.202Z,20.00
2023-01-01T05:13:12.101Z,20.00
2023-01-01T05:15:39.016Z,20.00
2023-01-01T05:18:06.068Z,20.00
2023-01-01T05:20:33.025Z,20.00
2023-01-01T05:22:59.989Z,20.00
2023-01-01T05:25:26.907Z,20.00
2023-01-01T05:27:53.896Z,20.00
2023-01-01T05:30:20.849Z,20.00
2023-01-01T05:32:47.757Z,20.00
2023-01-01T05:35:14.711Z,20.00
2023-01-01T05:37:41.598Z,20.00
2023-01-01T05:40:08.927Z,20.00
2023-01-01T05:42:36.295Z,20.00
2023-01-01T05:45:03.540Z,20.00
2023-01-01T05:47:30.422Z,20.00
2023-01-01T05:49:57.329Z,20.00
2023-01-01T05:52:26.757Z,20.00
2023-01-01T05:54:54.032Z,20.00
2023-01-01T05:57:20.967Z,20.00
2023-01-01T05:59:47.919Z,20.00
2023-01-01T06:02:14.927Z,20.10
2023-01-01T06:04:42.021Z,20.10
2023-01-01T06:07:08.986Z,20.10
2023-01-01T06:09:35.864Z,20.10
2023-01-01T06:12:02.793Z,20.10
2023-01-01T06:14:32.713Z,20.20
2023-01-01T06:16:59.641Z,20.20
2023-01-01T06:19:26.619Z,20.20
2023-01-01T06:21:54.840Z,20.20
2023-01-01T06:24:21.785Z,20.20
2023-01-01T06:26:48.675Z,20.30
2023-01-01T06:29:15.574Z,20.30
2023-01-01T06:31:42.487Z,20.30
2023-01-01T06:34:09.517Z,20.30
2023-01-01T06:36:36.561Z,20.30
2023-01-01T06:39:03.730Z,20.30
2023-01-01T06:41:31.123Z,20.30
2023-01-01T06:43:59.126Z,20.30
2023-01-01T06:46:27.325Z,20.30
2023-01-01T06:48:55.807Z,20.30
2023-01-01T06:51:24.197Z,20.40
2023-01-01T06:53:51.777Z,20.40
2023-01-01T06:56:18.982Z,20.40
2023-01-01T06:58:45.902Z,20.40
2023-01-01T07:01:14.871Z,20.40
2023-01-01T07:03:42.779Z,20.50
2023-01-01T07:06:10.189Z,20.50
2023-01-01T07:08:37.379Z,20.50
2023-01-01T07:11:04.584Z,20.50
2023-01-01T07:13:31.483Z,20.50
2023-01-01T07:15:58.457Z,20.60
2023-01-01T07:18:26.245Z,20.60
2023-01-01T07:20:54.168Z,20.60
2023-01-01T07:23:21.058Z,20.60
2023-01-01T07:25:51.941Z,20.70
2023-01-01T07:28:19.236Z,20.70
2023-01-01T07:30:46.351Z,20.70
2023-01-01T07:33:14.284Z,20.70
2023-01-01T07:35:41.436Z,20.70
2023-01-01T07:38:08.478Z,20.80
2023-01-01T07:40:35.371Z,20.80
2023-01-01T07:43:02.250Z,20.80
2023-01-01T07:45:29.163Z,20.90
2023-01-01T07:47:57.088Z,20.90
2023-01-01T07:50:24.997Z,20.90
2023-01-01T07:52:51.881Z,20.90
2023-01-01T07:55:19.292Z,21.00
2023-01-01T07:57:47.002Z,21.00
2023-01-01T08:00:15.209Z,21.00
2023-01-01T08:02:43.700Z,21.10
2023-01-01T08:05:11.065Z,21.10
2023-01-01T08:07:38.374Z,21.10
2023-01-01T08:10:05.954Z,21.10
2023-01-01T08:12:33.310Z,21.20
2023-01-01T08:15:00.233Z,21.20
2023-01-01T08:17:27.149Z,21.20
2023-01-01T08:19:54.033Z,21.20
2023-01-01T08:22:21.075Z,21.30
2023-01-01T08:24:47.999Z,21.30
2023-01-01T08:27:15.701Z,21.30
2023-01-01T08:29:42.930Z,21.40
2023-01-01T08:32:10.146Z,21.40
2023-01-01T08:34:37.046Z,21.40
2023-01-01T08:37:04.049Z,21.50
2023-01-01T08:39:31.145Z,21.50
2023-01-01T08:41:58.053Z,21.50
2023-01-01T08:44:24.946Z,21.60
2023-01-01T08:46:54.908Z,21.60
2023-01-01T08:49:21.850Z,21.60
2023-01-01T08:51:48.738Z,21.60
2023-01-01T08:54:15.663Z,21.70
2023-01-01T08:56:42.560Z,21.70
2023-01-01T08:59:09.445Z,21.70
2023-01-01T09:01:36.466Z,21.80
2023-01-01T09:04:03.500Z,21.80
2023-01-01T09:06:30.432Z,21.80
2023-01-01T09:08:57.320Z,21.80
2023-01-01T09:11:25.460Z,21.80
2023-01-01T09:13:52.779Z,21.90
2023-01-01T09:16:20.297Z,21.90
2023-01-01T09:18:47.259Z,21.90
2023-01-01T09:21:14.202Z,21.90
2023-01-01T09:23:41.155Z,22.00
2023-01-01T09:26:09.190Z,21.90
2023-01-01T09:28:36.745Z,22.00
2023-01-01T09:31:06.480Z,22.00
2023-01-01T09:33:33.826Z,22.10
2023-01-01T09:36:14.935Z,22.10
2023-01-01T09:38:41.902Z,22.10
2023-01-01T09:41:23.637Z,22.10
2023-01-01T09:43:57.927Z,22.20
2023-01-01T09:46:31.434Z,22.20
2023-01-01T09:49:01.568Z,22.20
2023-01-01T09:51:30.831Z,22.30
2023-01-01T09:54:05.519Z,22.30
2023-01-01T09:56:35.133Z,22.40
2023-01-01T09:59:02.193Z,22.40
2023-01-01T10:01:41.435Z,22.40
2023-01-01T10:04:28.308Z,22.40
2023-01-01T10:07:15.111Z,22.40
2023-01-01T10:10:01.872Z,22.40
2023-01-01T10:12:36.836Z,22.50
2023-01-01T10:15:06.543Z,22.50
2023-01-01T10:17:36.691Z,22.50
2023-01-01T10:20:07.696Z,22.50
2023-01-01T10:22:37.678Z,22.50
2023-01-01T10:25:09.185Z,22.50
2023-01-01T10:27:48.841Z,22.50
2023-01-01T10:30:19.792Z,22.50
2023-01-01T10:32:47.988Z,22.50
2023-01-01T10:35:16.422Z,22.50
2023-01-01T10:37:43.579Z,22.60
2023-01-01T10:40:15.292Z,22.60
2023-01-01T10:42:42.222Z,22.60
2023-01-01T10:45:13.366Z,22.60
2023-01-01T10:47:40.280Z,22.60
2023-01-01T10:50:10.314Z,22.60
2023-01-01T10:52:38.707Z,22.60
2023-01-01T10:55:06.819Z,22.60
2023-01-01T10:57:40.567Z,22.60
2023-01-01T11:00:24.659Z,22.60
2023-01-01T11:03:10.391Z,22.60
2023-01-01T11:05:37.337Z,22.60
2023-01-01T11:08:04.371Z,22.60
2023-01-01T11:10:31.700Z,22.60
2023-01-01T11:13:06.544Z,22.60
2023-01-01T11:15:41.423Z,22.60
2023-01-01T11:18:28.241Z,22.60
2023-01-01T11:20:56.571Z,22.60
2023-01-01T11:23:37.540Z,22.60
2023-01-01T11:26:19.821Z,22.70
2023-01-01T11:29:00.786Z,22.70
2023-01-01T11:31:29.789Z,22.70
2023-01-01T11:33:57.182Z,22.70
2023-01-01T11:36:26.028Z,22.70
2023-01-01T11:39:12.797Z,22.70
2023-01-01T11:41:43.979Z,22.70
2023-01-01T11:44:12.128Z,22.70
2023-01-01T11:46:39.424Z,22.70
2023-01-01T11:49:14.353Z,22.70
2023-01-01T11:51:41.331Z,22.70
2023-01-01T11:54:23.204Z,22.70
2023-01-01T11:56:52.790Z,22.70
2023-01-01T11:59:21.541Z,22.80
2023-01-01T12:01:53.968Z,22.70
2023-01-01T12:04:30.489Z,22.70
2023-01-01T12:07:05.075Z,22.80
2023-01-01T12:09:51.809Z,22.70
2023-01-01T12:12:23.518Z,22.80
2023-01-01T12:14:58.087Z,22.80
2023-01-01T12:17:27.964Z,22.80
2023-01-01T12:20:14.727Z,22.80
2023-01-01T12:22:41.857Z,22.80
2023-01-01T12:25:18.952Z,22.80
2023-01-01T12:28:01.163Z,22.80
2023-01-01T12:30:32.379Z,22.80
2023-01-01T12:33:18.804Z,22.80
2023-01-01T12:35:57.429Z,22.80
2023-01-01T12:38:35.156Z,22.80
2023-01-01T12:41:08.886Z,22.80
2023-01-01T12:43:52.614Z,22.80
2023-01-01T12:46:25.786Z,22.80
2023-01-01T12:49:07.694Z,22.90
2023-01-01T12:51:40.835Z,22.90
2023-01-01T12:54:27.560Z,22.90
2023-01-01T12:57:14.314Z,22.90
2023-01-01T12:59:43.459Z,22.90
2023-01-01T13:02:17.137Z,22.90
2023-01-01T13:04:45.529Z,22.90
2023-01-01T13:07:13.174Z,22.90
2023-01-01T13:09:44.783Z,22.90
2023-01-01T13:12:14.080Z,22.90
2023-01-01T13:14:42.067Z,22.90
2023-01-01T13:17:28.820Z,22.90
2023-01-01T13:20:00.058Z,22.90
2023-01-01T13:22:39.206Z,22.90
2023-01-01T13:25:19.746Z,22.90
2023-01-01T13:28:06.562Z,22.90
2023-01-01T13:30:47.575Z,22.90
2023-01-01T13:33:27.412Z,22.90
2023-01-01T13:36:14.317Z,22.90
2023-01-01T13:38:46.080Z,22.90
2023-01-01T13:41:30.276Z,22.90
2023-01-01T13:44:16.587Z,22.90
2023-01-01T13:46:59.492Z,22.80
2023-01-01T13:49:46.451Z,22.80
2023-01-01T13:52:24.111Z,22.80
2023-01-01T13:55:10.865Z,22.80
2023-01-01T13:57:57.587Z,22.80
2023-01-01T14:00:27.720Z,22.80
2023-01-01T14:02:59.608Z,22.80
2023-01-01T14:05:32.007Z,22.80
2023-01-01T14:07:59.165Z,22.80
2023-01-01T14:10:30.916Z,22.80
2023-01-01T14:13:17.715Z,22.80
2023-01-01T14:15:55.637Z,22.70
2023-01-01T14:18:25.954Z,22.70
2023-01-01T14:20:53.674Z,22.70
2023-01-01T14:23:31.606Z,22.70
2023-01-01T14:26:00.524Z,22.70
2023-01-01T14:28:31.783Z,22.70
2023-01-01T14:31:04.275Z,22.70
2023-01-01T14:33:35.649Z,22.60
2023-01-01T14:36:06.643Z,22.70
2023-01-01T14:38:35.006Z,22.70
2023-01-01T14:41:21.802Z,22.70
2023-01-01T14:43:50.849Z,22.70
2023-01-01T14:46:22.546Z,22.70
2023-01-01T14:48:54.463Z,22.60
2023-01-01T14:51:22.962Z,22.60
2023-01-01T14:53:50.607Z,22.60
2023-01-01T14:56:22.525Z,22.60
2023-01-01T14:58:49.520Z,22.60
2023-01-01T15:01:17.189Z,22.60
2023-01-01T15:03:57.754Z,22.60
2023-01-01T15:06:25.362Z,22.60
2023-01-01T15:08:52.750Z,22.60
2023-01-01T15:11:26.641Z,22.60
2023-01-01T15:13:56.553Z,22.50
2023-01-01T15:16:23.632Z,22.50
2023-01-01T15:18:51.496Z,22.50
2023-01-01T15:21:24.134Z,22.50
2023-01-01T15:23:55.591Z,22.40
2023-01-01T15:26:31.218Z,22.40
2023-01-01T15:28:59.261Z,22.40
2023-01-01T15:31:37.830Z,22.30
2023-01-01T15:34:05.008Z,22.30
2023-01-01T15:36:32.230Z,22.30
2023-01-01T15:38:59.520Z,22.20
2023-01-01T15:41:44.434Z,22.10
2023-01-01T15:44:19.604Z,22.10
2023-01-01T15:46:48.281Z,22.10
2023-01-01T15:49:22.349Z,22.00
2023-01-01T15:51:49.348Z,22.00
2023-01-01T15:54:17.350Z,22.00
2023-01-01T15:56:44.452Z,22.00
2023-01-01T15:59:19.200Z,22.00
2023-01-01T16:01:46.315Z,21.90
2023-01-01T16:04:28.853Z,21.90
2023-01-01T16:06:57.321Z,21.90
2023-01-01T16:09:24.310Z,21.80
2023-01-01T16:11:52.389Z,21.80
2023-01-01T16:14:19.355Z,21.80
2023-01-01T16:16:49.595Z,21.80
2023-01-01T16:19:17.991Z,21.70
2023-01-01T16:21:44.998Z,21.70
2023-01-01T16:24:15.569Z,21.70
2023-01-01T16:26:42.777Z,21.70
2023-01-01T16:29:09.979Z,21.70
2023-01-01T16:31:37.314Z,21.60
2023-01-01T16:34:05.355Z,21.60
2023-01-01T16:36:32.404Z,21.60
2023-01-01T16:38:59.830Z,21.60
2023-01-01T16:41:28.855Z,21.60
2023-01-01T16:43:55.927Z,21.50
2023-01-01T16:46:22.857Z,21.50
2023-01-01T16:48:49.757Z,21.50
2023-01-01T16:51:18.324Z,21.50
2023-01-01T16:53:45.862Z,21.50
2023-01-01T16:56:13.664Z,21.50
2023-01-01T16:58:49.458Z,21.50
2023-01-01T17:01:18.554Z,21.40
2023-01-01T17:03:45.543Z,21.40
2023-01-01T17:06:12.789Z,21.40
2023-01-01T17:08:39.745Z,21.40
2023-01-01T17:11:10.134Z,21.40
2023-01-01T17:13:37.242Z,21.40
2023-01-01T17:16:04.313Z,21.40
2023-01-01T17:19:12.812Z,21.30
2023-01-01T17:21:18.252Z,21.40
2023-01-01T17:23:45.474Z,21.30
2023-01-01T17:26:18.244Z,21.30
2023-01-01T17:28:45.469Z,21.30
2023-01-01T17:31:14.028Z,21.30
2023-01-01T17:33:41.379Z,21.30
2023-01-01T17:36:09.163Z,21.30
2023-01-01T17:38:36.524Z,21.30
2023-01-01T17:41:07.948Z,21.30
2023-01-01T17:43:35.900Z,21.20
2023-01-01T17:46:04.956Z,21.20
2023-01-01T17:48:32.105Z,21.20
2023-01-01T17:50:59.076Z,21.20
2023-01-01T17:53:26.440Z,21.20
2023-01-01T17:55:53.400Z,21.20
2023-01-01T17:58:20.351Z,21.20
2023-01-01T18:00:47.325Z,21.20
2023-01-01T18:03:14.762Z,21.10
2023-01-01T18:05:41.978Z,21.10
2023-01-01T18:08:08.963Z,21.10
2023-01-01T18:10:36.096Z,21.10
2023-01-01T18:13:03.334Z,21.10
2023-01-01T18:15:30.221Z,21.10
2023-01-01T18:17:57.147Z,21.10
2023-01-01T18:20:24.048Z,21.10
2023-01-01T18:22:53.664Z,21.10
2023-01-01T18:25:20.580Z,21.10
2023-01-01T18:27:51.219Z,21.10
2023-01-01T18:30:20.881Z,21.00
2023-01-01T18:32:48.014Z,21.00
2023-01-01T18:35:14.955Z,21.00
2023-01-01T18:37:42.106Z,21.00
2023-01-01T18:40:13.611Z,21.00
2023-01-01T18:42:53.584Z,21.00
2023-01-01T18:45:21.770Z,21.00
2023-01-01T18:47:49.012Z,21.00
2023-01-01T18:50:28.117Z,20.90
2023-01-01T18:53:07.150Z,20.90
2023-01-01T18:55:34.095Z,20.90
2023-01-01T18:58:05.071Z,20.90
2023-01-01T19:00:33.108Z,20.90
2023-01-01T19:03:04.071Z,20.90
2023-01-01T19:05:32.103Z,20.90
2023-01-01T19:08:14.083Z,20.90
2023-01-01T19:10:43.791Z,20.80
2023-01-01T19:13:16.231Z,20.90
2023-01-01T19:15:57.657Z,20.80
2023-01-01T19:18:31.705Z,20.80
2023-01-01T19:21:01.710Z,20.80
2023-01-01T19:23:30.157Z,20.80
2023-01-01T19:25:58.989Z,20.80
2023-01-01T19:28:31.439Z,20.80
2023-01-01T19:30:58.548Z,20.80
2023-01-01T19:33:25.524Z,20.80
2023-01-01T19:35:52.383Z,20.80
2023-01-01T19:38:19.396Z,20.80
2023-01-01T19:40:46.298Z,20.80
2023-01-01T19:43:13.330Z,20.80
2023-01-01T19:45:40.216Z,20.80
2023-01-01T19:48:07.160Z,20.80
2023-01-01T19:50:34.128Z,20.80
2023-01-01T19:53:01.084Z,20.80
2023-01-01T19:55:27.965Z,20.80
2023-01-01T19:57:54.926Z,20.80
2023-01-01T20:00:21.901Z,20.70
2023-01-01T20:02:49.234Z,20.70
2023-01-01T20:05:16.508Z,20.70
2023-01-01T20:07:43.474Z,20.70
2023-01-01T20:10:10.396Z,20.70
2023-01-01T20:12:37.341Z,20.70
2023-01-01T20:15:04.564Z,20.70
2023-01-01T20:17:31.463Z,20.70
2023-01-01T20:19:58.629Z,20.70
2023-01-01T20:22:25.605Z,20.70
2023-01-01T20:24:52.547Z,20.70
2023-01-01T20:27:23.403Z,20.70
2023-01-01T20:29:51.424Z,20.70
2023-01-01T20:32:18.381Z,20.70
2023-01-01T20:34:45.330Z,20.70
2023-01-01T20:37:32.119Z,20.70
2023-01-01T20:39:59.092Z,20.70
2023-01-01T20:42:27.662Z,20.70
2023-01-01T20:44:57.321Z,20.70
2023-01-01T20:47:24.332Z,20.70
2023-01-01T20:49:51.247Z,20.60
2023-01-01T20:52:18.146Z,20.60
2023-01-01T20:54:45.050Z,20.60
2023-01-01T20:57:12.140Z,20.60
2023-01-01T20:59:39.240Z,20.60
2023-01-01T21:02:07.691Z,20.60
2023-01-01T21:04:38.989Z,20.60
2023-01-01T21:07:06.929Z,20.60
2023-01-01T21:09:33.801Z,20.60
2023-01-01T21:12:02.264Z,20.60
2023-01-01T21:14:29.215Z,20.60
2023-01-01T21:16:56.413Z,20.60
2023-01-01T21:19:27.100Z,20.60
2023-01-01T21:21:58.586Z,20.60
2023-01-01T21:24:32.846Z,20.60
2023-01-01T21:27:11.475Z,20.60
2023-01-01T21:29:41.864Z,20.60
2023-01-01T21:32:23.103Z,20.50
2023-01-01T21:34:51.324Z,20.50
2023-01-01T21:37:48.581Z,20.50
2023-01-01T21:40:30.199Z,20.50
2023-01-01T21:43:13.224Z,20.50
2023-01-01T21:45:42.788Z,20.60
2023-01-01T21:48:16.193Z,20.50
2023-01-01T21:50:44.371Z,20.50
2023-01-01T21:53:14.543Z,20.50
2023-01-01T21:55:52.795Z,20.50
2023-01-01T21:58:41.756Z,20.50
2023-01-01T22:01:17.189Z,20.60
2023-01-01T22:03:44.181Z,20.50
2023-01-01T22:06:13.112Z,20.60
2023-01-01T22:08:41.973Z,20.50
2023-01-01T22:11:25.951Z,20.50
2023-01-01T22:13:54.156Z,20.50
2023-01-01T22:16:28.992Z,20.50
2023-01-01T22:18:56.569Z,20.50
2023-01-01T22:21:23.765Z,20.50
2023-01-01T22:23:52.692Z,20.50
2023-01-01T22:26:24.848Z,20.50
2023-01-01T22:28:56.774Z,20.50
2023-01-01T22:31:25.053Z,20.50
2023-01-01T22:33:52.591Z,20.50
2023-01-01T22:36:26.831Z,20.40
2023-01-01T22:38:55.666Z,20.40
2023-01-01T22:41:22.570Z,20.40
2023-01-01T22:43:55.336Z,20.50
2023-01-01T22:46:26.633Z,20.40
2023-01-01T22:48:58.063Z,20.40
2023-01-01T22:51:27.414Z,20.40
2023-01-01T22:53:54.395Z,20.40
2023-01-01T22:56:21.634Z,20.40
2023-01-01T22:58:54.839Z,20.40
2023-01-01T23:01:23.915Z,20.40
2023-01-01T23:03:51.093Z,20.40
2023-01-01T23:06:18.677Z,20.40
2023-01-01T23:08:45.777Z,20.40
2023-01-01T23:11:12.743Z,20.40
2023-01-01T23:13:59.519Z,20.40
2023-01-01T23:16:26.498Z,20.40
2023-01-01T23:18:53.424Z,20.30
2023-01-01T23:21:26.796Z,20.40
2023-01-01T23:23:55.161Z,20.40
2023-01-01T23:26:22.068Z,20.40
2023-01-01T23:28:48.990Z,20.40
2023-01-01T23:31:24.314Z,20.40
2023-01-01T23:33:52.208Z,20.30
2023-01-01T23:36:19.099Z,20.30
2023-01-01T23:38:46.157Z,20.30
2023-01-01T23:41:13.058Z,20.40
2023-01-01T23:43:43.454Z,20.30
2023-01-01T23:46:11.742Z,20.30
2023-01-01T23:48:38.922Z,20.30
2023-01-01T23:51:06.021Z,20.30
2023-01-01T23:53:32.927Z,20.30
2023-01-01T23:55:59.812Z,20.30
2023-01-01T23:58:26.714Z,20.30
